Time;durP1;ratioP1;P1;durP2;ratioP2;P2;SDS_P1;SDS_P2;PMS_P1;PMS_P2;Temp;Humidity;BMP_temperature;BMP_pressure;BME280_temperature;BME280_humidity;BME280_pressure;Samples;Min_cycle;Max_cycle;Signal;HPM_P1;HPM_P2
2023/11/29 00:00:21;;;;;;;11.40;9.32;;;6.40;54.80;;;;;;5016862;28;20048;-75
2023/11/29 00:02:47;;;;;;;9.40;8.40;;;6.40;54.90;;;;;;5018426;28;20112;-77
2023/11/29 00:05:13;;;;;;;9.70;8.32;;;6.30;54.80;;;;;;5011207;28;20484;-76
2023/11/29 00:07:45;;;;;;;12.00;8.95;;;6.30;54.80;;;;;;5019775;28;20475;-76
2023/11/29 00:10:11;;;;;;;11.10;8.63;;;6.30;54.80;;;;;;5022791;28;20102;-75
2023/11/29 00:12:40;;;;;;;8.20;7.40;;;6.20;54.70;;;;;;5011110;28;20045;-75
2023/11/29 00:15:07;;;;;;;8.27;7.47;;;6.20;54.70;;;;;;5019358;28;20080;-75
2023/11/29 00:17:33;;;;;;;8.90;8.00;;;6.20;54.80;;;;;;5016488;28;20060;-76
2023/11/29 00:19:59;;;;;;;8.50;7.63;;;6.10;54.70;;;;;;5009424;28;20083;-75
2023/11/29 00:22:25;;;;;;;9.27;8.10;;;6.10;54.70;;;;;;5013241;28;20513;-75
2023/11/29 00:24:51;;;;;;;9.15;7.15;;;6.10;54.70;;;;;;5020128;28;20053;-76
2023/11/29 00:27:17;;;;;;;7.97;7.28;;;6.10;54.80;;;;;;5011628;28;20029;-75
2023/11/29 00:29:44;;;;;;;7.32;6.53;;;6.10;54.80;;;;;;5025913;28;20026;-75
2023/11/29 00:32:10;;;;;;;8.00;7.18;;;6.00;54.60;;;;;;5014873;28;20053;-76
2023/11/29 00:34:37;;;;;;;8.05;7.00;;;6.00;54.70;;;;;;5018550;28;20279;-75
2023/11/29 00:37:04;;;;;;;7.07;6.38;;;6.00;54.70;;;;;;5017707;28;20039;-75
2023/11/29 00:39:30;;;;;;;7.78;6.97;;;6.00;54.80;;;;;;5015338;28;20025;-76
2023/11/29 00:41:56;;;;;;;8.07;7.28;;;5.90;55.10;;;;;;5011859;28;20046;-76
2023/11/29 00:44:23;;;;;;;7.57;6.78;;;5.90;54.60;;;;;;5009214;28;20025;-76
2023/11/29 00:46:49;;;;;;;7.22;6.38;;;5.90;54.60;;;;;;5016145;28;20326;-75
2023/11/29 00:49:17;;;;;;;7.93;6.82;;;5.80;54.50;;;;;;5011625;28;20107;-76
2023/11/29 00:51:44;;;;;;;8.20;6.95;;;5.80;54.50;;;;;;5013181;28;20354;-77
2023/11/29 00:54:11;;;;;;;6.82;6.13;;;5.80;54.50;;;;;;5032098;28;20044;-76
2023/11/29 00:56:38;;;;;;;7.10;6.40;;;5.70;54.40;;;;;;5015370;28;20033;-75
2023/11/29 00:59:04;;;;;;;8.55;6.57;;;5.70;54.40;;;;;;5015312;28;20033;-75
2023/11/29 01:01:30;;;;;;;7.25;6.55;;;5.70;54.50;;;;;;4998336;28;20547;-76
2023/11/29 01:03:55;;;;;;;7.53;6.63;;;5.60;54.30;;;;;;5017131;28;20037;-75
2023/11/29 01:06:21;;;;;;;7.85;7.13;;;5.60;54.40;;;;;;5022997;28;20038;-76
2023/11/29 01:08:47;;;;;;;7.78;6.63;;;5.60;54.40;;;;;;5036441;28;20158;-76
2023/11/29 01:11:14;;;;;;;7.85;7.05;;;5.60;54.40;;;;;;5015812;28;20047;-77
2023/11/29 01:13:40;;;;;;;7.72;6.93;;;5.50;54.20;;;;;;5036440;28;20112;-76
2023/11/29 01:16:06;;;;;;;7.55;6.80;;;5.50;54.20;;;;;;5046248;28;20160;-75
2023/11/29 01:18:33;;;;;;;8.27;7.25;;;5.50;54.30;;;;;;5014503;28;20041;-75
2023/11/29 01:20:59;;;;;;;9.25;7.15;;;5.50;54.30;;;;;;5027012;28;20079;-76
2023/11/29 01:23:26;;;;;;;7.45;6.75;;;5.40;54.20;;;;;;5034910;28;20037;-76
2023/11/29 01:25:52;;;;;;;7.93;7.10;;;5.40;54.20;;;;;;4999828;28;20082;-77
2023/11/29 01:28:18;;;;;;;7.60;6.80;;;5.40;54.90;;;;;;5015479;28;20032;-77
2023/11/29 01:30:44;;;;;;;8.13;6.82;;;5.40;54.30;;;;;;5027803;28;20030;-77
2023/11/29 01:33:11;;;;;;;8.73;7.82;;;5.30;54.10;;;;;;5031672;28;20071;-77
2023/11/29 01:35:38;;;;;;;8.48;7.57;;;5.30;54.20;;;;;;5018808;28;20455;-77
2023/11/29 01:38:04;;;;;;;8.90;7.20;;;5.30;54.30;;;;;;5016771;28;20060;-76
2023/11/29 01:40:30;;;;;;;6.72;6.13;;;5.30;54.20;;;;;;5015804;28;20641;-77
2023/11/29 01:42:56;;;;;;;8.02;6.97;;;5.30;54.20;;;;;;5024117;28;20611;-76
2023/11/29 01:45:22;;;;;;;8.23;7.05;;;5.20;54.10;;;;;;5032021;28;20038;-76
2023/11/29 01:47:50;;;;;;;7.53;6.82;;;5.20;54.10;;;;;;5022132;28;20034;-75
2023/11/29 01:50:18;;;;;;;7.90;7.20;;;5.20;54.10;;;;;;5015753;28;20026;-76
2023/11/29 01:52:44;;;;;;;7.20;6.50;;;5.20;54.20;;;;;;5034519;28;20096;-76
2023/11/29 01:55:12;;;;;;;7.63;6.88;;;5.10;54.00;;;;;;5024344;28;20788;-77
2023/11/29 01:57:39;;;;;;;8.63;6.75;;;5.10;54.00;;;;;;5031592;28;20068;-76
2023/11/29 02:00:06;;;;;;;9.38;7.38;;;5.10;54.10;;;;;;5023581;28;20098;-76
2023/11/29 02:02:39;;;;;;;7.05;6.30;;;5.10;54.10;;;;;;5028941;28;20045;-76
2023/11/29 02:05:05;;;;;;;9.07;7.30;;;5.10;54.10;;;;;;5015448;28;20483;-76
2023/11/29 02:07:31;;;;;;;8.73;6.97;;;5.10;54.20;;;;;;5026772;28;20478;-77
2023/11/29 02:09:57;;;;;;;7.10;6.47;;;5.00;54.00;;;;;;5030046;28;20048;-76
2023/11/29 02:12:24;;;;;;;7.57;6.78;;;5.10;54.20;;;;;;5016150;28;20033;-76
2023/11/29 02:14:50;;;;;;;8.45;6.68;;;5.00;54.10;;;;;;5032116;28;20047;-77
2023/11/29 02:17:16;;;;;;;8.43;7.53;;;5.00;54.10;;;;;;5013572;28;20774;-76
2023/11/29 02:19:41;;;;;;;7.15;6.53;;;5.00;54.20;;;;;;5036571;28;20122;-75
2023/11/29 02:22:08;;;;;;;6.93;6.18;;;5.00;54.20;;;;;;5016910;28;20026;-76
2023/11/29 02:24:40;;;;;;;7.90;6.90;;;5.00;54.20;;;;;;5050342;28;20048;-77
2023/11/29 02:27:08;;;;;;;7.20;6.50;;;5.00;54.20;;;;;;5029456;28;20037;-76
2023/11/29 02:29:36;;;;;;;7.05;6.35;;;4.90;54.10;;;;;;5015957;28;20022;-75
2023/11/29 02:32:03;;;;;;;8.60;6.65;;;4.90;54.10;;;;;;5029241;28;20072;-77
2023/11/29 02:34:29;;;;;;;6.43;5.82;;;4.90;54.20;;;;;;5002997;28;20525;-76
2023/11/29 02:36:56;;;;;;;6.55;5.93;;;4.90;54.20;;;;;;5018206;28;20025;-76
2023/11/29 02:39:23;;;;;;;8.63;6.53;;;4.90;54.20;;;;;;5019304;28;20119;-76
2023/11/29 02:41:48;;;;;;;8.05;6.35;;;4.90;54.20;;;;;;5030316;28;20055;-76
2023/11/29 02:44:15;;;;;;;6.43;5.82;;;4.90;54.20;;;;;;5020679;28;20033;-77
2023/11/29 02:46:41;;;;;;;6.68;6.07;;;4.80;54.00;;;;;;5029581;28;20032;-76
2023/11/29 02:49:07;;;;;;;6.93;6.07;;;4.80;54.10;;;;;;5014100;28;20393;-77
2023/11/29 02:51:33;;;;;;;6.43;5.82;;;4.80;54.10;;;;;;5018552;28;20042;-75
2023/11/29 02:53:59;;;;;;;6.97;5.80;;;4.80;54.10;;;;;;5021346;28;20025;-76
2023/11/29 02:56:26;;;;;;;7.32;6.60;;;4.80;54.20;;;;;;5034625;28;20033;-76
2023/11/29 02:58:51;;;;;;;7.05;6.22;;;4.70;54.00;;;;;;5019974;28;20385;-76
2023/11/29 03:01:18;;;;;;;6.35;5.75;;;4.70;54.00;;;;;;5031345;28;20060;-76
2023/11/29 03:03:45;;;;;;;6.55;5.75;;;4.70;54.00;;;;;;5035488;28;20056;-77
2023/11/29 03:06:11;;;;;;;7.38;6.05;;;4.70;54.00;;;;;;5028987;28;20038;-77
2023/11/29 03:08:37;;;;;;;7.72;6.40;;;4.70;54.00;;;;;;5019516;28;20145;-77
2023/11/29 03:11:03;;;;;;;6.57;5.97;;;4.70;54.10;;;;;;5014169;28;20042;-77
2023/11/29 03:13:29;;;;;;;6.88;5.93;;;4.70;54.10;;;;;;5015018;28;20041;-77
2023/11/29 03:15:55;;;;;;;10.30;7.13;;;4.60;53.90;;;;;;5020166;28;20140;-77
2023/11/29 03:18:24;;;;;;;9.38;6.40;;;4.60;53.90;;;;;;5021158;28;20084;-77
2023/11/29 03:20:50;;;;;;;6.30;5.60;;;4.60;54.00;;;;;;5023127;28;20341;-76
2023/11/29 03:23:17;;;;;;;7.35;6.43;;;4.60;54.00;;;;;;5018277;28;20462;-76
2023/11/29 03:25:43;;;;;;;7.28;6.07;;;4.50;53.80;;;;;;5032039;28;20382;-76
2023/11/29 03:28:09;;;;;;;6.22;5.63;;;4.60;54.00;;;;;;5032710;28;20545;-76
2023/11/29 03:30:35;;;;;;;7.13;6.43;;;4.50;53.90;;;;;;5025913;28;20436;-76
2023/11/29 03:33:01;;;;;;;7.90;6.68;;;4.50;53.90;;;;;;5015568;28;20095;-76
2023/11/29 03:35:27;;;;;;;6.88;6.18;;;4.50;53.90;;;;;;5030649;28;20470;-76
2023/11/29 03:37:53;;;;;;;6.60;5.97;;;4.50;53.90;;;;;;5027553;28;20037;-76
2023/11/29 03:40:19;;;;;;;5.88;5.05;;;4.50;54.50;;;;;;5029267;28;20128;-76
2023/11/29 03:42:45;;;;;;;7.50;6.68;;;4.50;54.00;;;;;;5031424;28;20124;-76
2023/11/29 03:45:11;;;;;;;6.65;5.97;;;4.50;54.00;;;;;;5030335;28;20512;-77
2023/11/29 03:47:37;;;;;;;8.70;6.38;;;4.50;54.00;;;;;;5029085;28;20362;-77
2023/11/29 03:50:04;;;;;;;6.63;5.72;;;4.40;53.80;;;;;;5018468;28;20030;-77
2023/11/29 03:52:30;;;;;;;6.05;5.45;;;4.40;53.80;;;;;;5027116;28;20045;-76
2023/11/29 03:54:56;;;;;;;7.15;6.45;;;4.40;53.80;;;;;;5017908;28;20025;-76
2023/11/29 03:57:22;;;;;;;8.90;6.57;;;4.40;53.90;;;;;;5015809;28;20088;-77
2023/11/29 03:59:49;;;;;;;6.10;5.43;;;4.40;53.90;;;;;;5014143;28;20481;-77
2023/11/29 04:02:15;;;;;;;6.03;5.43;;;4.40;53.90;;;;;;5017411;28;20033;-77
2023/11/29 04:04:41;;;;;;;6.95;6.03;;;4.40;54.00;;;;;;5019791;28;20038;-76
2023/11/29 04:07:09;;;;;;;6.60;5.68;;;4.30;53.80;;;;;;5031870;28;20041;-76
2023/11/29 04:09:35;;;;;;;6.90;6.20;;;4.30;53.80;;;;;;5029823;28;20567;-76
2023/11/29 04:12:01;;;;;;;6.57;5.88;;;4.30;53.80;;;;;;5022515;28;20029;-75
2023/11/29 04:14:30;;;;;;;6.97;5.85;;;4.30;53.90;;;;;;5017254;28;20131;-77
2023/11/29 04:16:57;;;;;;;7.22;6.53;;;4.30;54.00;;;;;;5024433;28;20198;-77
2023/11/29 04:19:25;;;;;;;6.43;5.57;;;4.30;54.50;;;;;;5030518;28;20069;-77
2023/11/29 04:21:51;;;;;;;7.43;6.20;;;4.30;54.00;;;;;;5019938;28;20131;-77
2023/11/29 04:24:17;;;;;;;7.95;6.63;;;4.30;54.00;;;;;;5020576;28;20452;-76
2023/11/29 04:26:43;;;;;;;7.45;5.97;;;4.30;54.00;;;;;;5021387;28;20047;-77
2023/11/29 04:29:10;;;;;;;8.85;6.82;;;4.30;54.10;;;;;;5023756;28;20417;-78
2023/11/29 04:31:37;;;;;;;6.43;5.82;;;4.40;54.30;;;;;;5029622;28;20165;-77
2023/11/29 04:34:05;;;;;;;9.40;6.43;;;4.40;54.30;;;;;;5027639;28;20038;-78
2023/11/29 04:36:31;;;;;;;7.20;6.50;;;4.40;54.30;;;;;;5012340;28;20501;-76
2023/11/29 04:38:57;;;;;;;7.55;6.25;;;4.40;54.30;;;;;;5016123;28;20033;-77
2023/11/29 04:41:24;;;;;;;6.70;5.88;;;4.40;54.30;;;;;;5035760;28;20048;-77
2023/11/29 04:43:53;;;;;;;7.35;6.55;;;4.40;54.30;;;;;;5025884;28;20373;-76
2023/11/29 04:46:19;;;;;;;6.95;6.25;;;4.40;54.30;;;;;;5014012;28;20026;-78
2023/11/29 04:48:45;;;;;;;7.97;6.82;;;4.40;54.40;;;;;;5027509;28;20061;-77
2023/11/29 04:51:19;;;;;;;7.90;6.53;;;4.40;54.40;;;;;;5029991;28;20033;-77
2023/11/29 04:53:45;;;;;;;7.25;6.53;;;4.50;54.60;;;;;;5033135;28;20389;-77
2023/11/29 04:56:12;;;;;;;7.93;6.43;;;4.40;54.50;;;;;;5026920;28;20036;-76
2023/11/29 04:58:40;;;;;;;10.88;7.30;;;4.50;54.70;;;;;;5022614;28;20029;-77
2023/11/29 05:01:10;;;;;;;7.38;6.53;;;4.50;54.70;;;;;;5020215;28;20077;-76
2023/11/29 05:03:36;;;;;;;8.00;7.20;;;4.50;54.70;;;;;;5028461;28;20068;-77
2023/11/29 05:06:04;;;;;;;6.95;6.30;;;4.50;54.70;;;;;;5051709;28;20517;-76
2023/11/29 05:08:30;;;;;;;7.55;6.35;;;4.50;54.80;;;;;;5025378;28;20033;-77
2023/11/29 05:10:57;;;;;;;7.25;6.28;;;4.50;54.80;;;;;;5032215;28;20048;-77
2023/11/29 05:13:23;;;;;;;8.55;6.28;;;4.50;54.90;;;;;;5023781;28;20303;-76
2023/11/29 05:15:48;;;;;;;8.35;6.63;;;4.50;54.90;;;;;;5034507;28;20637;-77
2023/11/29 05:18:14;;;;;;;8.73;6.45;;;4.60;55.10;;;;;;5024519;28;20037;-77
2023/11/29 05:20:40;;;;;;;7.63;6.20;;;4.60;55.10;;;;;;5029327;28;20022;-77
2023/11/29 05:23:06;;;;;;;8.35;7.18;;;4.60;55.20;;;;;;5027119;28;20421;-77
2023/11/29 05:25:32;;;;;;;7.78;6.25;;;4.60;55.20;;;;;;5026213;28;20117;-76
2023/11/29 05:27:58;;;;;;;7.88;6.50;;;4.60;55.20;;;;;;5029699;28;20034;-77
2023/11/29 05:30:24;;;;;;;9.38;6.88;;;4.60;55.20;;;;;;5027746;28;20029;-76
2023/11/29 05:32:51;;;;;;;8.15;7.18;;;4.60;55.30;;;;;;5027263;28;20071;-76
2023/11/29 05:35:17;;;;;;;6.75;6.05;;;4.60;55.30;;;;;;5027059;28;20555;-76
2023/11/29 05:37:44;;;;;;;7.22;6.50;;;4.60;55.30;;;;;;5030045;28;20065;-76
2023/11/29 05:40:10;;;;;;;7.82;6.10;;;4.60;55.40;;;;;;5025473;28;20043;-76
2023/11/29 05:42:40;;;;;;;7.20;6.50;;;4.60;55.40;;;;;;5031662;28;20029;-76
2023/11/29 05:45:09;;;;;;;7.85;6.90;;;4.60;55.40;;;;;;5031075;28;20261;-77
2023/11/29 05:47:36;;;;;;;6.18;5.57;;;4.60;55.40;;;;;;5022074;28;20041;-77
2023/11/29 05:50:05;;;;;;;8.15;6.40;;;4.60;55.50;;;;;;5030947;28;20515;-77
2023/11/29 05:52:32;;;;;;;9.02;6.88;;;4.50;55.30;;;;;;5025847;28;20156;-78
2023/11/29 05:55:01;;;;;;;8.00;6.38;;;4.60;55.60;;;;;;5028387;28;20033;-78
2023/11/29 05:57:27;;;;;;;7.60;5.97;;;4.50;55.40;;;;;;5020415;28;20095;-77
2023/11/29 06:00:06;;;;;;;6.85;6.10;;;4.50;55.40;;;;;;5028712;28;20021;-78
2023/11/29 06:02:39;;;;;;;8.93;6.97;;;4.50;55.50;;;;;;5045728;28;20201;-76
2023/11/29 06:05:05;;;;;;;8.30;6.90;;;4.50;55.50;;;;;;5020775;28;20034;-76
2023/11/29 06:07:35;;;;;;;7.95;6.13;;;4.50;55.60;;;;;;5024382;28;20735;-77
2023/11/29 06:10:03;;;;;;;7.70;6.30;;;4.50;55.60;;;;;;5037857;28;20068;-77
2023/11/29 06:12:30;;;;;;;7.75;6.95;;;4.50;55.60;;;;;;5020231;28;20285;-76
2023/11/29 06:14:56;;;;;;;8.82;6.85;;;4.40;55.40;;;;;;5026178;28;20034;-75
2023/11/29 06:17:23;;;;;;;8.10;6.70;;;4.40;55.40;;;;;;5025282;28;20079;-74
2023/11/29 06:19:50;;;;;;;7.85;7.03;;;4.40;55.50;;;;;;5020619;28;20033;-76
2023/11/29 06:22:16;;;;;;;9.13;7.00;;;4.40;55.50;;;;;;5033738;28;20112;-76
2023/11/29 06:24:42;;;;;;;9.48;6.80;;;4.40;55.50;;;;;;5030054;28;20580;-76
2023/11/29 06:27:09;;;;;;;6.93;6.28;;;4.40;55.50;;;;;;5029791;28;20461;-76
2023/11/29 06:29:35;;;;;;;9.43;6.93;;;4.40;55.60;;;;;;5025255;28;20033;-76
2023/11/29 06:32:01;;;;;;;6.90;6.20;;;4.40;55.60;;;;;;5024240;28;20087;-77
2023/11/29 06:34:26;;;;;;;8.32;6.72;;;4.40;55.60;;;;;;5022176;28;20041;-76
2023/11/29 06:36:53;;;;;;;6.85;6.20;;;4.40;55.60;;;;;;5026606;28;20716;-75
2023/11/29 06:39:19;;;;;;;7.32;6.63;;;4.30;55.40;;;;;;5014158;28;20034;-76
2023/11/29 06:41:47;;;;;;;7.47;6.50;;;4.30;55.40;;;;;;5023033;28;20562;-76
2023/11/29 06:44:13;;;;;;;7.72;6.93;;;4.30;55.50;;;;;;5017013;28;20033;-75
2023/11/29 06:46:40;;;;;;;7.43;6.72;;;4.30;55.50;;;;;;5018691;28;20041;-76
2023/11/29 06:49:07;;;;;;;7.32;6.63;;;4.30;55.50;;;;;;5016964;28;20079;-76
2023/11/29 06:51:34;;;;;;;8.30;7.03;;;4.30;55.60;;;;;;5027044;28;20496;-76
2023/11/29 06:54:00;;;;;;;7.97;7.18;;;4.30;55.60;;;;;;5018342;28;20056;-76
2023/11/29 06:56:26;;;;;;;8.82;7.32;;;4.20;55.50;;;;;;5054276;28;20060;-76
2023/11/29 06:58:52;;;;;;;7.72;6.75;;;4.20;55.50;;;;;;5019180;28;20029;-75
2023/11/29 07:01:18;;;;;;;7.85;7.07;;;4.20;55.60;;;;;;5016188;28;20281;-75
2023/11/29 07:03:44;;;;;;;8.10;6.88;;;4.20;55.60;;;;;;5044524;28;20079;-77
2023/11/29 07:06:22;;;;;;;9.38;7.35;;;4.10;55.50;;;;;;5013103;28;20033;-75
2023/11/29 07:08:49;;;;;;;8.57;7.72;;;4.20;55.90;;;;;;5019405;28;20595;-76
2023/11/29 07:11:16;;;;;;;8.88;7.97;;;4.20;55.90;;;;;;5017607;28;20103;-75
2023/11/29 07:13:43;;;;;;;8.35;6.95;;;4.20;55.90;;;;;;5014838;28;20049;-77
2023/11/29 07:16:09;;;;;;;10.50;8.68;;;4.20;55.90;;;;;;5050095;28;20401;-79
2023/11/29 07:18:37;;;;;;;8.05;7.30;;;4.20;56.00;;;;;;5019054;28;20052;-77
2023/11/29 07:21:04;;;;;;;8.98;7.93;;;4.20;56.00;;;;;;5007530;28;20268;-76
2023/11/29 07:23:30;;;;;;;8.88;7.85;;;4.20;56.00;;;;;;5018461;28;20029;-77
2023/11/29 07:25:56;;;;;;;8.55;7.43;;;4.20;56.00;;;;;;5018346;28;20566;-76
2023/11/29 07:28:23;;;;;;;9.43;8.13;;;4.20;56.00;;;;;;5004017;28;20087;-77
2023/11/29 07:30:49;;;;;;;11.57;9.68;;;4.20;56.10;;;;;;5015927;28;20489;-76
2023/11/29 07:33:16;;;;;;;9.88;7.88;;;4.10;55.90;;;;;;5014578;28;20460;-76
2023/11/29 07:35:42;;;;;;;9.88;8.15;;;4.20;56.10;;;;;;5019036;28;20456;-76
2023/11/29 07:38:07;;;;;;;11.68;8.55;;;4.10;56.00;;;;;;5013469;28;20037;-76
2023/11/29 07:40:33;;;;;;;9.07;8.07;;;4.10;56.00;;;;;;5024464;28;20037;-78
2023/11/29 07:43:00;;;;;;;11.20;8.38;;;4.10;56.00;;;;;;5014593;28;20661;-76
2023/11/29 07:45:26;;;;;;;11.65;8.52;;;4.10;56.20;;;;;;5018659;28;20025;-77
2023/11/29 07:47:52;;;;;;;12.27;7.13;;;4.10;56.40;;;;;;5016985;28;20130;-78
2023/11/29 07:50:19;;;;;;;10.70;8.05;;;4.20;56.80;;;;;;5012745;28;20457;-76
2023/11/29 07:52:45;;;;;;;10.15;7.43;;;4.30;57.10;;;;;;5028862;28;20529;-78
2023/11/29 07:55:11;;;;;;;11.32;7.90;;;4.30;57.30;;;;;;5016466;28;20453;-77
2023/11/29 07:57:36;;;;;;;10.13;8.48;;;4.40;57.60;;;;;;5018776;28;20037;-76
2023/11/29 08:00:05;;;;;;;9.70;8.35;;;4.50;57.90;;;;;;5017407;28;20038;-77
2023/11/29 08:02:39;;;;;;;9.07;7.80;;;4.60;58.10;;;;;;5015145;28;20053;-76
2023/11/29 08:05:05;;;;;;;9.68;7.88;;;4.70;58.40;;;;;;5021429;28;20401;-75
2023/11/29 08:07:32;;;;;;;11.82;8.18;;;4.90;58.90;;;;;;5018381;28;20468;-75
2023/11/29 08:10:01;;;;;;;10.57;8.32;;;5.00;59.20;;;;;;5015845;28;20477;-75
2023/11/29 08:12:28;;;;;;;9.70;7.25;;;5.00;59.20;;;;;;5020303;28;20053;-75
2023/11/29 08:14:55;;;;;;;10.80;8.20;;;5.10;59.50;;;;;;5023329;28;20033;-76
2023/11/29 08:17:21;;;;;;;9.82;7.93;;;5.20;59.70;;;;;;5018656;28;20505;-75
2023/11/29 08:19:47;;;;;;;9.27;7.78;;;5.30;60.00;;;;;;5048622;28;20037;-75
2023/11/29 08:22:14;;;;;;;8.90;6.93;;;5.40;60.20;;;;;;5027528;28;20037;-75
2023/11/29 08:24:41;;;;;;;9.00;8.07;;;5.40;60.30;;;;;;5018887;28;20120;-74
2023/11/29 08:27:09;;;;;;;10.80;7.85;;;5.50;60.50;;;;;;5018143;28;20033;-76
2023/11/29 08:29:35;;;;;;;9.15;7.50;;;5.60;60.70;;;;;;5025591;28;20032;-76
2023/11/29 08:32:01;;;;;;;9.60;8.10;;;5.70;60.90;;;;;;5016660;28;20122;-76
2023/11/29 08:34:28;;;;;;;9.80;7.50;;;5.80;61.10;;;;;;5018469;28;20530;-76
2023/11/29 08:36:54;;;;;;;9.50;8.20;;;5.80;61.10;;;;;;5021402;28;20029;-76
2023/11/29 08:39:21;;;;;;;8.52;7.28;;;5.80;61.10;;;;;;5014859;28;20034;-76
2023/11/29 08:41:47;;;;;;;8.85;6.65;;;6.00;61.50;;;;;;5014835;28;20049;-75
2023/11/29 08:44:15;;;;;;;7.95;7.15;;;6.00;61.60;;;;;;5033412;28;20037;-75
2023/11/29 08:46:41;;;;;;;8.73;7.32;;;6.10;61.70;;;;;;5016440;28;20030;-75
2023/11/29 08:49:08;;;;;;;8.10;7.30;;;6.10;61.70;;;;;;5018477;28;20045;-76
2023/11/29 08:51:34;;;;;;;8.43;7.38;;;6.20;61.90;;;;;;5013189;28;20025;-75
2023/11/29 08:54:00;;;;;;;10.02;7.60;;;6.30;62.10;;;;;;5014851;28;20151;-76
2023/11/29 08:56:25;;;;;;;10.88;7.80;;;6.30;62.10;;;;;;5023745;28;20080;-76
2023/11/29 08:58:53;;;;;;;8.15;7.35;;;6.40;62.30;;;;;;5020701;28;20351;-76
2023/11/29 09:01:20;;;;;;;7.45;6.72;;;6.50;62.40;;;;;;5013790;28;20025;-75
2023/11/29 09:03:46;;;;;;;7.43;6.72;;;6.50;62.30;;;;;;5017013;28;20807;-76
2023/11/29 09:06:13;;;;;;;8.30;6.80;;;6.60;62.50;;;;;;5012716;28;20036;-76
2023/11/29 09:08:39;;;;;;;6.93;6.05;;;6.70;62.70;;;;;;5034921;28;20033;-76
2023/11/29 09:11:06;;;;;;;9.18;6.47;;;6.80;62.80;;;;;;5018597;28;20560;-76
2023/11/29 09:13:34;;;;;;;9.13;7.20;;;6.80;62.80;;;;;;5016332;28;20209;-75
2023/11/29 09:16:00;;;;;;;9.82;7.50;;;6.90;62.90;;;;;;5023122;28;20120;-76
2023/11/29 09:18:26;;;;;;;11.27;7.15;;;6.90;62.80;;;;;;5020769;28;20315;-76
2023/11/29 09:20:52;;;;;;;7.10;6.40;;;7.00;63.00;;;;;;5028955;28;20413;-75
2023/11/29 09:23:19;;;;;;;9.40;7.78;;;7.10;63.10;;;;;;5020120;28;20030;-77
2023/11/29 09:25:46;;;;;;;10.70;7.70;;;7.10;63.10;;;;;;5030678;28;20400;-76
2023/11/29 09:28:15;;;;;;;8.40;6.95;;;7.20;63.20;;;;;;5019252;28;20036;-75
2023/11/29 09:30:42;;;;;;;7.28;5.70;;;7.30;63.30;;;;;;5017769;28;20417;-76
2023/11/29 09:33:09;;;;;;;5.78;5.18;;;7.30;63.40;;;;;;5012883;28;20061;-77
2023/11/29 09:35:35;;;;;;;6.90;5.85;;;7.50;63.90;;;;;;5019412;28;20336;-76
2023/11/29 09:38:05;;;;;;;7.55;5.72;;;7.70;64.30;;;;;;5021040;28;20033;-74
2023/11/29 09:40:32;;;;;;;6.38;5.57;;;7.90;64.50;;;;;;5016624;28;20232;-76
2023/11/29 09:42:57;;;;;;;5.82;4.95;;;8.10;64.50;;;;;;5011273;28;20038;-75
2023/11/29 09:45:27;;;;;;;8.45;5.60;;;8.40;64.60;;;;;;5032922;28;20075;-76
2023/11/29 09:47:57;;;;;;;6.15;5.38;;;8.60;64.60;;;;;;5020511;28;20498;-76
2023/11/29 09:50:26;;;;;;;5.32;4.60;;;8.80;64.50;;;;;;5017409;28;20172;-76
2023/11/29 09:52:55;;;;;;;4.63;4.22;;;9.10;64.70;;;;;;5011345;28;20069;-77
2023/11/29 09:55:21;;;;;;;7.28;5.78;;;9.20;64.50;;;;;;5013210;28;20044;-76
2023/11/29 09:57:46;;;;;;;10.10;7.25;;;9.40;64.50;;;;;;5012930;28;20025;-75
2023/11/29 10:00:15;;;;;;;8.15;6.80;;;9.50;64.20;;;;;;5019346;28;20041;-76
2023/11/29 10:02:41;;;;;;;10.35;7.95;;;9.50;63.80;;;;;;5016614;28;20069;-76
2023/11/29 10:05:08;;;;;;;12.75;9.60;;;9.50;63.60;;;;;;5009497;28;20041;-76
2023/11/29 10:07:35;;;;;;;8.52;7.38;;;9.40;63.40;;;;;;5019884;28;20071;-76
2023/11/29 10:10:05;;;;;;;9.65;8.65;;;9.30;63.30;;;;;;5021728;28;20033;-76
2023/11/29 10:12:32;;;;;;;10.40;8.95;;;9.10;63.00;;;;;;5021647;28;20034;-76
2023/11/29 10:14:58;;;;;;;10.13;9.13;;;9.00;63.10;;;;;;5018200;28;20033;-76
2023/11/29 10:17:26;;;;;;;10.52;9.43;;;8.90;63.00;;;;;;5054088;28;20089;-74
2023/11/29 10:19:55;;;;;;;11.95;9.95;;;8.80;62.90;;;;;;5021288;28;20851;-75
2023/11/29 10:22:21;;;;;;;12.60;11.30;;;8.70;62.80;;;;;;5035210;28;20034;-75
2023/11/29 10:24:47;;;;;;;12.77;10.38;;;8.60;62.70;;;;;;5026231;28;20304;-75
2023/11/29 10:27:18;;;;;;;11.55;10.35;;;8.60;62.80;;;;;;5023782;28;20033;-75
2023/11/29 10:29:44;;;;;;;12.35;11.10;;;8.50;63.20;;;;;;5016801;28;20120;-75
2023/11/29 10:32:11;;;;;;;11.43;10.23;;;8.40;62.50;;;;;;5048919;28;20052;-75
2023/11/29 10:34:38;;;;;;;11.88;10.52;;;8.40;62.50;;;;;;5021197;28;20087;-76
2023/11/29 10:37:05;;;;;;;12.40;10.60;;;8.30;62.40;;;;;;5020409;28;20030;-75
2023/11/29 10:39:33;;;;;;;12.18;10.93;;;8.30;62.40;;;;;;5021397;28;20505;-76
2023/11/29 10:42:04;;;;;;;12.38;11.13;;;8.20;62.20;;;;;;5021016;28;20049;-76
2023/11/29 10:44:36;;;;;;;12.75;11.32;;;8.20;62.20;;;;;;5017847;28;20045;-76
2023/11/29 10:47:43;;;;;;;13.77;10.95;;;8.20;62.10;;;;;;5019879;28;20045;-76
2023/11/29 10:50:12;;;;;;;13.88;11.30;;;8.20;62.10;;;;;;5044914;28;20517;-76
2023/11/29 10:52:39;;;;;;;12.85;11.52;;;8.20;62.60;;;;;;5019712;28;20040;-75
2023/11/29 10:55:06;;;;;;;13.63;11.70;;;8.10;61.90;;;;;;5024990;28;20062;-75
2023/11/29 10:57:43;;;;;;;13.90;11.27;;;8.20;62.10;;;;;;5020619;28;20049;-76
2023/11/29 11:00:15;;;;;;;18.23;12.70;;;8.20;62.10;;;;;;5020211;28;20068;-76
2023/11/29 11:02:46;;;;;;;14.15;11.50;;;8.20;62.00;;;;;;5019735;28;20033;-75
2023/11/29 11:05:17;;;;;;;14.48;11.35;;;8.20;62.00;;;;;;5014061;28;20029;-76
2023/11/29 11:07:45;;;;;;;14.23;12.75;;;8.30;62.10;;;;;;5021468;28;20112;-75
2023/11/29 11:10:17;;;;;;;12.32;11.10;;;8.30;62.10;;;;;;5020676;28;20048;-75
2023/11/29 11:12:44;;;;;;;14.30;12.48;;;8.30;62.00;;;;;;5013207;28;20268;-75
2023/11/29 11:15:13;;;;;;;12.63;11.32;;;8.30;61.90;;;;;;5053546;28;20033;-76
2023/11/29 11:17:39;;;;;;;13.00;11.70;;;8.40;62.00;;;;;;5021087;28;20048;-75
2023/11/29 11:20:07;;;;;;;14.70;13.10;;;8.40;62.00;;;;;;5019355;28;20520;-76
2023/11/29 11:22:44;;;;;;;15.48;12.77;;;8.40;61.90;;;;;;5017426;28;20095;-75
2023/11/29 11:25:16;;;;;;;13.10;11.70;;;8.50;62.00;;;;;;5036393;28;20029;-78
2023/11/29 11:27:48;;;;;;;14.88;12.40;;;8.50;61.90;;;;;;5010911;28;20076;-75
2023/11/29 11:30:17;;;;;;;14.98;11.52;;;8.60;62.00;;;;;;5019502;28;20045;-76
2023/11/29 11:32:48;;;;;;;15.73;11.75;;;8.60;61.90;;;;;;5020126;28;20347;-75
2023/11/29 11:35:17;;;;;;;13.20;11.80;;;8.60;61.80;;;;;;5023023;28;20033;-74
2023/11/29 11:37:47;;;;;;;13.25;11.82;;;8.60;61.80;;;;;;5015398;28;20038;-75
2023/11/29 11:40:14;;;;;;;12.23;10.82;;;8.70;62.00;;;;;;5019673;28;20033;-75
2023/11/29 11:42:42;;;;;;;12.52;11.23;;;8.70;61.90;;;;;;5032961;28;20132;-77
2023/11/29 11:45:09;;;;;;;14.60;12.13;;;8.80;62.00;;;;;;5049279;28;20465;-76
2023/11/29 11:47:36;;;;;;;12.60;11.23;;;8.80;61.90;;;;;;5020815;28;20040;-76
2023/11/29 11:50:04;;;;;;;15.15;12.48;;;8.80;62.40;;;;;;5021321;28;20650;-77
2023/11/29 11:52:31;;;;;;;12.82;11.52;;;8.80;61.80;;;;;;5022547;28;20040;-76
2023/11/29 11:55:05;;;;;;;15.20;11.98;;;8.90;61.90;;;;;;5017039;28;20033;-76
2023/11/29 11:57:32;;;;;;;13.10;10.80;;;8.90;61.90;;;;;;5032499;28;20120;-76
2023/11/29 11:59:58;;;;;;;12.50;11.20;;;9.00;62.00;;;;;;5019107;28;20121;-78
2023/11/29 12:02:24;;;;;;;12.93;11.52;;;9.00;61.90;;;;;;5018714;28;20040;-79
2023/11/29 12:04:50;;;;;;;12.30;11.13;;;9.00;61.90;;;;;;5019460;28;20099;-79
2023/11/29 12:07:17;;;;;;;10.65;9.55;;;9.10;61.90;;;;;;5020196;28;20061;-78
2023/11/29 12:09:46;;;;;;;11.18;9.75;;;9.20;62.10;;;;;;5026976;28;20072;-77
2023/11/29 12:12:14;;;;;;;10.00;8.75;;;9.20;62.10;;;;;;5037317;28;20596;-77
2023/11/29 12:14:45;;;;;;;14.68;9.95;;;9.30;62.20;;;;;;5019920;28;20030;-78
2023/11/29 12:17:12;;;;;;;9.48;8.48;;;9.40;62.40;;;;;;5027219;28;20032;-78
2023/11/29 12:19:40;;;;;;;8.55;7.65;;;9.40;62.40;;;;;;5018512;28;20033;-77
2023/11/29 12:22:06;;;;;;;9.25;7.88;;;9.50;62.50;;;;;;5018718;28;20407;-77
2023/11/29 12:24:38;;;;;;;9.05;7.45;;;9.50;62.60;;;;;;5019340;28;20055;-78
2023/11/29 12:27:08;;;;;;;9.80;7.57;;;9.70;63.20;;;;;;5021405;28;20277;-76
2023/11/29 12:29:41;;;;;;;9.43;6.18;;;9.80;63.30;;;;;;5017836;28;20045;-78
2023/11/29 12:32:08;;;;;;;9.57;8.02;;;10.00;63.50;;;;;;5021936;28;20043;-76
2023/11/29 12:34:35;;;;;;;9.40;7.70;;;10.10;63.40;;;;;;5021997;28;20393;-76
2023/11/29 12:37:01;;;;;;;8.93;7.93;;;10.20;63.20;;;;;;5016997;28;20511;-76
2023/11/29 12:39:33;;;;;;;9.20;8.25;;;10.30;63.10;;;;;;5019491;28;20338;-76
2023/11/29 12:42:05;;;;;;;10.52;8.90;;;10.20;62.70;;;;;;5005088;28;20526;-77
2023/11/29 12:44:35;;;;;;;11.43;8.00;;;10.20;62.70;;;;;;5019407;28;20326;-77
2023/11/29 12:47:02;;;;;;;10.00;8.93;;;10.10;62.60;;;;;;5028791;28;20075;-77
2023/11/29 12:49:31;;;;;;;10.60;8.45;;;10.00;62.50;;;;;;5019790;28;20037;-76
2023/11/29 12:51:59;;;;;;;10.98;8.90;;;9.90;62.40;;;;;;5027329;28;20148;-77